createdAt,value
2023-01-22T00:01:44.687Z,2.60
2023-01-22T00:04:15.273Z,2.87
2023-01-22T00:06:44.302Z,2.60
2023-01-22T00:09:15.598Z,2.37
2023-01-22T00:11:44.650Z,2.70
2023-01-22T00:14:13.853Z,3.30
2023-01-22T00:16:43.060Z,3.00
2023-01-22T00:19:13.705Z,3.00
2023-01-22T00:21:42.779Z,3.47
2023-01-22T00:24:12.219Z,3.00
2023-01-22T00:26:41.276Z,3.20
2023-01-22T00:29:10.387Z,3.30
2023-01-22T00:31:39.555Z,2.97
2023-01-22T00:34:10.333Z,3.33
2023-01-22T00:36:42.668Z,2.63
2023-01-22T00:39:12.475Z,3.37
2023-01-22T00:41:42.768Z,4.63
2023-01-22T00:44:11.879Z,3.17
2023-01-22T00:46:41.113Z,2.50
2023-01-22T00:49:10.274Z,3.43
2023-01-22T00:51:40.675Z,2.70
2023-01-22T00:54:11.218Z,3.53
2023-01-22T00:56:40.200Z,3.00
2023-01-22T00:59:10.408Z,3.20
2023-01-22T01:01:40.174Z,3.03
2023-01-22T01:04:09.315Z,2.93
2023-01-22T01:06:39.920Z,2.27
2023-01-22T01:09:09.099Z,2.60
2023-01-22T01:11:38.195Z,2.33
2023-01-22T01:14:07.531Z,2.70
2023-01-22T01:16:36.572Z,2.83
2023-01-22T01:19:07.973Z,2.77
2023-01-22T01:21:37.193Z,2.97
2023-01-22T01:24:08.053Z,2.83
2023-01-22T01:26:37.072Z,3.03
2023-01-22T01:29:09.477Z,2.77
2023-01-22T01:31:39.699Z,2.37
2023-01-22T01:34:10.517Z,2.53
2023-01-22T01:36:48.849Z,2.47
2023-01-22T01:39:19.996Z,1.77
2023-01-22T01:41:50.314Z,2.30
2023-01-22T01:44:21.374Z,2.47
2023-01-22T01:46:54.058Z,2.77
2023-01-22T01:49:30.640Z,2.80
2023-01-22T01:52:02.621Z,3.17
2023-01-22T01:54:33.323Z,2.37
2023-01-22T01:57:06.715Z,2.77
2023-01-22T01:59:36.718Z,2.43
2023-01-22T02:02:05.927Z,2.20
2023-01-22T02:04:35.163Z,2.67
2023-01-22T02:07:05.166Z,1.97
2023-01-22T02:09:37.093Z,3.20
2023-01-22T02:12:07.084Z,2.10
2023-01-22T02:14:40.437Z,3.20
2023-01-22T02:17:11.800Z,2.73
2023-01-22T02:19:41.151Z,2.40
2023-01-22T02:22:16.137Z,2.33
2023-01-22T02:24:45.913Z,3.17
2023-01-22T02:27:15.262Z,2.40
2023-01-22T02:29:44.294Z,2.77
2023-01-22T02:32:13.799Z,2.77
2023-01-22T02:34:42.906Z,2.67
2023-01-22T02:37:13.669Z,3.03
2023-01-22T02:39:42.802Z,2.53
2023-01-22T02:42:12.322Z,2.40
2023-01-22T02:44:43.320Z,2.60
2023-01-22T02:47:12.384Z,2.57
2023-01-22T02:49:42.771Z,2.70
2023-01-22T02:52:13.301Z,2.93
2023-01-22T02:54:42.360Z,2.70
2023-01-22T02:57:11.409Z,2.40
2023-01-22T02:59:40.708Z,3.30
2023-01-22T03:02:12.913Z,3.20
2023-01-22T03:04:42.120Z,2.23
2023-01-22T03:07:13.837Z,2.50
2023-01-22T03:09:42.895Z,2.77
2023-01-22T03:12:11.928Z,2.80
2023-01-22T03:14:58.470Z,3.03
2023-01-22T03:17:45.060Z,2.73
2023-01-22T03:20:31.874Z,3.10
2023-01-22T03:23:02.237Z,1.97
2023-01-22T03:25:31.289Z,2.23
2023-01-22T03:28:19.247Z,2.40
2023-01-22T03:30:56.676Z,2.67
2023-01-22T03:33:26.345Z,2.37
2023-01-22T03:36:01.818Z,3.80
2023-01-22T03:38:34.201Z,2.87
2023-01-22T03:41:05.307Z,2.97
2023-01-22T03:43:35.661Z,2.40
2023-01-22T03:46:11.477Z,2.43
2023-01-22T03:48:44.772Z,2.90
2023-01-22T03:51:16.293Z,3.10
2023-01-22T03:53:47.908Z,2.50
2023-01-22T03:56:21.643Z,2.47
2023-01-22T03:58:51.739Z,2.67
2023-01-22T04:01:25.458Z,2.50
2023-01-22T04:03:55.438Z,2.30
2023-01-22T04:06:27.770Z,2.30
2023-01-22T04:08:58.570Z,2.47
2023-01-22T04:11:32.844Z,2.50
2023-01-22T04:14:01.980Z,1.60
2023-01-22T04:16:33.997Z,2.60
2023-01-22T04:19:11.769Z,2.30
2023-01-22T04:21:49.555Z,2.23
2023-01-22T04:24:20.428Z,2.43
2023-01-22T04:26:50.345Z,2.50
2023-01-22T04:29:21.674Z,2.67
2023-01-22T04:31:51.328Z,2.53
2023-01-22T04:34:20.366Z,2.50
2023-01-22T04:36:58.818Z,2.47
2023-01-22T04:39:33.854Z,2.67
2023-01-22T04:42:02.901Z,2.53
2023-01-22T04:44:31.974Z,1.90
2023-01-22T04:47:01.270Z,1.97
2023-01-22T04:49:30.442Z,2.47
2023-01-22T04:51:59.979Z,2.30
2023-01-22T04:54:31.938Z,2.03
2023-01-22T04:57:00.972Z,2.57
2023-01-22T04:59:30.000Z,2.47
2023-01-22T05:02:00.071Z,2.47
2023-01-22T05:04:29.308Z,2.07
2023-01-22T05:06:58.488Z,2.17
2023-01-22T05:09:27.877Z,2.20
2023-01-22T05:12:02.542Z,2.37
2023-01-22T05:14:36.166Z,2.13
2023-01-22T05:17:05.193Z,2.37
2023-01-22T05:19:35.455Z,1.67
2023-01-22T05:22:05.809Z,2.60
2023-01-22T05:24:35.374Z,2.10
2023-01-22T05:27:05.881Z,2.37
2023-01-22T05:29:43.072Z,2.37
2023-01-22T05:32:32.371Z,2.87
2023-01-22T05:35:01.448Z,2.20
2023-01-22T05:37:31.636Z,2.30
2023-01-22T05:40:00.617Z,2.60
2023-01-22T05:42:35.265Z,2.60
2023-01-22T05:45:08.034Z,2.30
2023-01-22T05:47:42.049Z,2.27
2023-01-22T05:50:31.314Z,1.83
2023-01-22T05:53:09.929Z,2.00
2023-01-22T05:55:39.798Z,2.53
2023-01-22T05:58:10.191Z,3.70
2023-01-22T06:00:39.275Z,2.77
2023-01-22T06:03:11.640Z,2.40
2023-01-22T06:05:48.800Z,1.93
2023-01-22T06:08:17.837Z,2.60
2023-01-22T06:10:52.357Z,2.40
2023-01-22T06:13:22.909Z,2.23
2023-01-22T06:15:55.937Z,2.50
2023-01-22T06:18:44.910Z,2.43
2023-01-22T06:21:16.807Z,1.83
2023-01-22T06:23:46.264Z,2.47
2023-01-22T06:26:15.976Z,2.63
2023-01-22T06:28:46.371Z,2.77
2023-01-22T06:31:15.750Z,3.00
2023-01-22T06:33:44.864Z,2.13
2023-01-22T06:36:16.475Z,2.33
2023-01-22T06:38:45.585Z,1.97
2023-01-22T06:41:18.592Z,2.33
2023-01-22T06:43:51.141Z,2.00
2023-01-22T06:46:21.117Z,2.23
2023-01-22T06:49:10.275Z,2.37
2023-01-22T06:51:41.174Z,2.33
2023-01-22T06:54:13.007Z,2.80
2023-01-22T06:56:42.074Z,3.10
2023-01-22T06:59:12.460Z,2.03
2023-01-22T07:01:42.095Z,2.00
2023-01-22T07:04:12.011Z,2.57
2023-01-22T07:06:41.565Z,2.53
2023-01-22T07:09:11.325Z,1.97
2023-01-22T07:11:41.615Z,2.23
2023-01-22T07:14:13.459Z,2.70
2023-01-22T07:16:42.819Z,2.23
2023-01-22T07:19:12.314Z,2.70
2023-01-22T07:21:41.962Z,2.67
2023-01-22T07:24:12.279Z,2.50
2023-01-22T07:26:42.806Z,2.67
2023-01-22T07:29:13.403Z,2.30
2023-01-22T07:31:43.213Z,2.23
2023-01-22T07:34:12.508Z,2.77
2023-01-22T07:36:41.653Z,2.63
2023-01-22T07:39:10.695Z,2.33
2023-01-22T07:41:39.770Z,2.03
2023-01-22T07:44:14.959Z,2.50
2023-01-22T07:46:44.038Z,2.73
2023-01-22T07:49:13.406Z,2.13
2023-01-22T07:51:42.418Z,2.13
2023-01-22T07:54:11.463Z,2.43
2023-01-22T07:56:40.522Z,2.50
2023-01-22T07:59:09.518Z,2.67
2023-01-22T08:01:39.928Z,2.40
2023-01-22T08:04:09.195Z,2.33
2023-01-22T08:06:38.322Z,2.60
2023-01-22T08:09:07.571Z,2.10
2023-01-22T08:11:36.568Z,2.20
2023-01-22T08:14:05.609Z,2.53
2023-01-22T08:16:35.716Z,2.67
2023-01-22T08:19:06.251Z,2.77
2023-01-22T08:21:35.322Z,1.80
2023-01-22T08:24:05.112Z,2.40
2023-01-22T08:26:34.091Z,2.50
2023-01-22T08:29:06.459Z,2.20
2023-01-22T08:31:36.573Z,1.90
2023-01-22T08:34:07.466Z,2.37
2023-01-22T08:36:36.497Z,2.67
2023-01-22T08:39:05.713Z,2.10
2023-01-22T08:41:34.817Z,1.57
2023-01-22T08:44:04.037Z,2.17
2023-01-22T08:46:35.863Z,2.23
2023-01-22T08:49:06.661Z,2.50
2023-01-22T08:51:36.045Z,2.30
2023-01-22T08:54:05.332Z,1.67
2023-01-22T08:56:34.444Z,2.70
2023-01-22T08:59:06.458Z,2.27
2023-01-22T09:01:36.037Z,2.00
2023-01-22T09:04:09.179Z,2.60
2023-01-22T09:06:39.843Z,2.27
2023-01-22T09:09:09.253Z,2.30
2023-01-22T09:11:38.331Z,2.50
2023-01-22T09:14:08.360Z,1.77
2023-01-22T09:16:37.860Z,1.63
2023-01-22T09:19:07.516Z,2.50
2023-01-22T09:21:39.284Z,1.57
2023-01-22T09:24:09.045Z,3.43
2023-01-22T09:26:38.291Z,3.00
2023-01-22T09:29:07.575Z,2.43
2023-01-22T09:31:37.181Z,3.07
2023-01-22T09:34:07.044Z,2.50
2023-01-22T09:36:36.099Z,2.00
2023-01-22T09:39:06.612Z,2.57
2023-01-22T09:41:38.146Z,1.70
2023-01-22T09:44:12.298Z,2.13
2023-01-22T09:46:45.137Z,2.03
2023-01-22T09:49:24.570Z,2.17
2023-01-22T09:51:56.704Z,2.20
2023-01-22T09:54:28.871Z,2.60
2023-01-22T09:57:00.001Z,2.60
2023-01-22T09:59:33.444Z,2.40
2023-01-22T10:02:15.738Z,2.13
2023-01-22T10:04:47.869Z,1.73
2023-01-22T10:07:23.550Z,1.87
2023-01-22T10:09:57.149Z,2.03
2023-01-22T10:12:30.382Z,2.10
2023-01-22T10:15:00.338Z,1.80
2023-01-22T10:17:33.944Z,1.93
2023-01-22T10:20:06.475Z,2.27
2023-01-22T10:22:35.839Z,1.90
2023-01-22T10:25:07.608Z,1.90
2023-01-22T10:27:39.786Z,2.10
2023-01-22T10:30:20.120Z,2.20
2023-01-22T10:33:01.358Z,2.47
2023-01-22T10:35:32.024Z,2.27
2023-01-22T10:38:02.331Z,2.10
2023-01-22T10:40:41.139Z,1.60
2023-01-22T10:43:13.963Z,2.17
2023-01-22T10:45:53.472Z,1.97
2023-01-22T10:48:23.723Z,1.47
2023-01-22T10:51:03.871Z,2.67
2023-01-22T10:53:35.699Z,1.80
2023-01-22T10:56:12.572Z,1.90
2023-01-22T10:58:49.009Z,1.70
2023-01-22T11:01:30.283Z,1.80
2023-01-22T11:03:59.315Z,2.07
2023-01-22T11:06:37.117Z,2.40
2023-01-22T11:09:14.049Z,2.30
2023-01-22T11:11:48.194Z,1.57
2023-01-22T11:14:23.438Z,1.63
2023-01-22T11:16:55.187Z,1.90
2023-01-22T11:19:37.255Z,1.70
2023-01-22T11:22:18.119Z,1.80
2023-01-22T11:24:48.508Z,2.00
2023-01-22T11:27:31.449Z,1.70
2023-01-22T11:30:11.765Z,1.27
2023-01-22T11:32:56.145Z,1.87
2023-01-22T11:35:30.923Z,1.60
2023-01-22T11:38:15.975Z,1.30
2023-01-22T11:41:04.088Z,1.87
2023-01-22T11:44:10.852Z,1.70
2023-01-22T11:46:57.851Z,1.73
2023-01-22T11:49:36.976Z,1.50
2023-01-22T11:52:19.821Z,1.50
2023-01-22T11:55:05.891Z,1.30
2023-01-22T11:57:41.770Z,1.53
2023-01-22T12:00:38.397Z,1.10
2023-01-22T12:03:35.653Z,2.00
2023-01-22T12:06:19.043Z,1.40
2023-01-22T12:08:59.951Z,1.53
2023-01-22T12:11:51.076Z,1.30
2023-01-22T12:14:36.308Z,1.33
2023-01-22T12:17:18.263Z,1.80
2023-01-22T12:20:18.111Z,1.87
2023-01-22T12:22:51.695Z,1.20
2023-01-22T12:25:28.432Z,1.77
2023-01-22T12:28:03.448Z,1.60
2023-01-22T12:30:46.330Z,1.33
2023-01-22T12:33:20.783Z,1.33
2023-01-22T12:35:52.331Z,1.70
2023-01-22T12:38:39.682Z,2.07
2023-01-22T12:41:32.460Z,1.80
2023-01-22T12:44:06.297Z,1.57
2023-01-22T12:46:49.734Z,1.17
2023-01-22T12:49:20.868Z,1.67
2023-01-22T12:51:51.195Z,1.23
2023-01-22T12:54:29.714Z,1.63
2023-01-22T12:57:12.596Z,1.30
2023-01-22T12:59:47.323Z,1.13
2023-01-22T13:02:24.902Z,1.70
2023-01-22T13:04:56.243Z,1.37
2023-01-22T13:07:35.045Z,1.30
2023-01-22T13:10:05.900Z,1.50
2023-01-22T13:12:45.412Z,1.70
2023-01-22T13:15:20.974Z,1.77
2023-01-22T13:18:06.668Z,1.00
2023-01-22T13:20:47.510Z,1.83
2023-01-22T13:23:17.199Z,1.70
2023-01-22T13:25:46.310Z,1.03
2023-01-22T13:28:19.631Z,1.40
2023-01-22T13:31:03.504Z,1.30
2023-01-22T13:33:33.133Z,0.80
2023-01-22T13:36:14.633Z,0.80
2023-01-22T13:38:51.479Z,1.03
2023-01-22T13:41:33.791Z,1.50
2023-01-22T13:44:03.850Z,1.13
2023-01-22T13:46:33.078Z,1.00
2023-01-22T13:49:08.109Z,1.20
2023-01-22T13:51:39.134Z,0.80
2023-01-22T13:54:09.089Z,0.77
2023-01-22T13:56:38.429Z,1.10
2023-01-22T13:59:21.306Z,1.37
2023-01-22T14:01:51.282Z,1.33
2023-01-22T14:04:29.615Z,1.10
2023-01-22T14:07:00.083Z,1.10
2023-01-22T14:09:31.573Z,1.40
2023-01-22T14:12:01.965Z,0.80
2023-01-22T14:14:40.942Z,1.47
2023-01-22T14:17:20.518Z,0.80
2023-01-22T14:19:49.624Z,1.17
2023-01-22T14:22:20.025Z,1.10
2023-01-22T14:24:52.360Z,1.20
2023-01-22T14:27:22.075Z,0.93
2023-01-22T14:29:51.612Z,1.30
2023-01-22T14:32:20.730Z,1.10
2023-01-22T14:34:49.784Z,0.80
2023-01-22T14:37:21.216Z,0.60
2023-01-22T14:39:50.320Z,1.40
2023-01-22T14:42:19.430Z,1.10
2023-01-22T14:44:48.532Z,1.00
2023-01-22T14:47:17.719Z,1.00
2023-01-22T14:49:48.837Z,0.97
2023-01-22T14:52:19.317Z,1.00
2023-01-22T14:54:48.368Z,1.07
2023-01-22T14:57:17.411Z,0.93
2023-01-22T14:59:46.454Z,1.17
2023-01-22T15:02:15.568Z,1.20
2023-01-22T15:04:45.516Z,1.00
2023-01-22T15:07:14.564Z,1.10
2023-01-22T15:09:48.302Z,1.37
2023-01-22T15:12:19.716Z,1.00
2023-01-22T15:14:48.931Z,1.03
2023-01-22T15:17:19.223Z,1.00
2023-01-22T15:19:48.422Z,1.10
2023-01-22T15:22:17.636Z,1.10
2023-01-22T15:24:48.017Z,1.00
2023-01-22T15:27:18.623Z,0.93
2023-01-22T15:29:48.011Z,0.87
2023-01-22T15:32:17.101Z,1.23
2023-01-22T15:34:46.135Z,1.00
2023-01-22T15:37:15.150Z,1.53
2023-01-22T15:39:44.536Z,1.17
2023-01-22T15:42:14.996Z,1.43
2023-01-22T15:44:44.011Z,1.40
2023-01-22T15:47:14.386Z,1.77
2023-01-22T15:49:43.579Z,1.33
2023-01-22T15:52:12.640Z,1.20
2023-01-22T15:54:41.784Z,1.67
2023-01-22T15:57:10.983Z,1.73
2023-01-22T15:59:42.042Z,1.30
2023-01-22T16:02:14.780Z,1.30
2023-01-22T16:04:43.913Z,1.40
2023-01-22T16:07:12.939Z,1.60
2023-01-22T16:09:42.067Z,1.13
2023-01-22T16:12:20.440Z,1.20
2023-01-22T16:14:50.901Z,1.20
2023-01-22T16:17:19.956Z,1.23
2023-01-22T16:19:50.355Z,0.90
2023-01-22T16:22:19.555Z,1.47
2023-01-22T16:24:48.667Z,1.43
2023-01-22T16:27:18.419Z,1.50
2023-01-22T16:29:47.860Z,1.03
2023-01-22T16:32:18.270Z,1.00
2023-01-22T16:34:47.399Z,1.20
2023-01-22T16:37:17.704Z,1.00
2023-01-22T16:39:46.739Z,1.33
2023-01-22T16:42:15.877Z,1.17
2023-01-22T16:44:45.219Z,1.40
2023-01-22T16:47:14.316Z,1.13
2023-01-22T16:49:44.745Z,1.30
2023-01-22T16:52:22.342Z,1.20
2023-01-22T16:54:52.274Z,1.07
2023-01-22T16:57:21.397Z,0.90
2023-01-22T16:59:50.429Z,1.23
2023-01-22T17:02:20.624Z,1.20
2023-01-22T17:04:51.101Z,1.17
2023-01-22T17:07:32.896Z,1.13
2023-01-22T17:10:03.189Z,1.03
2023-01-22T17:12:32.340Z,1.00
2023-01-22T17:15:01.743Z,1.10
2023-01-22T17:17:30.783Z,1.00
2023-01-22T17:20:01.176Z,1.27
2023-01-22T17:22:33.051Z,1.37
2023-01-22T17:25:02.156Z,1.50
2023-01-22T17:27:32.266Z,0.90
2023-01-22T17:30:01.355Z,1.70
2023-01-22T17:32:30.430Z,1.13
2023-01-22T17:35:00.873Z,1.00
2023-01-22T17:37:29.951Z,1.10
2023-01-22T17:39:58.974Z,1.07
2023-01-22T17:42:27.999Z,1.17
2023-01-22T17:44:57.390Z,1.00
2023-01-22T17:47:26.457Z,1.23
2023-01-22T17:49:55.942Z,1.40
2023-01-22T17:52:26.433Z,1.50
2023-01-22T17:54:55.459Z,1.40
2023-01-22T17:57:24.537Z,1.10
2023-01-22T17:59:53.693Z,1.10
2023-01-22T18:02:22.790Z,1.17
2023-01-22T18:04:51.929Z,1.37
2023-01-22T18:07:20.977Z,1.43
2023-01-22T18:09:51.534Z,1.40
2023-01-22T18:12:20.675Z,1.40
2023-01-22T18:14:50.134Z,1.10
2023-01-22T18:17:19.157Z,0.87
2023-01-22T18:19:48.447Z,1.23
2023-01-22T18:22:17.624Z,0.87
2023-01-22T18:24:46.674Z,1.10
2023-01-22T18:27:17.175Z,0.80
2023-01-22T18:29:46.367Z,1.03
2023-01-22T18:32:15.388Z,1.33
2023-01-22T18:34:44.450Z,1.10
2023-01-22T18:37:13.512Z,1.00
2023-01-22T18:39:42.588Z,0.80
2023-01-22T18:42:11.660Z,1.17
2023-01-22T18:44:42.106Z,1.20
2023-01-22T18:47:11.234Z,0.83
2023-01-22T18:49:40.315Z,0.80
2023-01-22T18:52:09.480Z,0.90
2023-01-22T18:54:38.503Z,1.20
2023-01-22T18:57:07.541Z,0.70
2023-01-22T18:59:36.763Z,1.10
2023-01-22T19:02:08.799Z,1.30
2023-01-22T19:04:37.814Z,1.20
2023-01-22T19:07:06.921Z,1.60
2023-01-22T19:09:36.158Z,1.00
2023-01-22T19:12:07.253Z,0.93
2023-01-22T19:14:36.307Z,1.03
2023-01-22T19:17:07.282Z,0.93
2023-01-22T19:19:36.271Z,1.10
2023-01-22T19:22:05.387Z,1.13
2023-01-22T19:24:34.514Z,1.30
2023-01-22T19:27:04.016Z,1.90
2023-01-22T19:29:33.136Z,1.10
2023-01-22T19:32:02.422Z,1.20
2023-01-22T19:34:32.993Z,1.27
2023-01-22T19:37:03.019Z,1.20
2023-01-22T19:39:32.386Z,1.40
2023-01-22T19:42:05.208Z,1.07
2023-01-22T19:44:36.049Z,1.33
2023-01-22T19:47:05.474Z,1.50
2023-01-22T19:49:36.065Z,1.67
2023-01-22T19:52:05.584Z,0.73
2023-01-22T19:54:34.727Z,1.30
2023-01-22T19:57:03.837Z,0.90
2023-01-22T19:59:33.277Z,1.50
2023-01-22T20:02:02.885Z,1.40
2023-01-22T20:04:34.409Z,1.37
2023-01-22T20:07:06.268Z,1.10
2023-01-22T20:09:36.697Z,1.03
2023-01-22T20:12:08.542Z,1.03
2023-01-22T20:14:43.188Z,1.40
2023-01-22T20:17:13.801Z,1.13
2023-01-22T20:19:43.054Z,1.67
2023-01-22T20:22:13.624Z,1.43
2023-01-22T20:24:43.897Z,1.07
2023-01-22T20:27:12.895Z,1.47
2023-01-22T20:29:42.077Z,1.20
2023-01-22T20:32:11.496Z,1.50
2023-01-22T20:34:41.971Z,1.10
2023-01-22T20:37:12.664Z,1.63
2023-01-22T20:39:41.688Z,1.27
2023-01-22T20:42:10.828Z,1.10
2023-01-22T20:44:40.232Z,1.30
2023-01-22T20:47:09.272Z,1.33
2023-01-22T20:49:38.388Z,0.87
2023-01-22T20:52:07.663Z,1.30
2023-01-22T20:54:50.016Z,1.33
2023-01-22T20:57:27.113Z,1.30
2023-01-22T20:59:56.429Z,1.30
2023-01-22T21:02:25.478Z,1.70
2023-01-22T21:04:56.420Z,1.30
2023-01-22T21:07:25.473Z,1.30
2023-01-22T21:09:55.900Z,1.27
2023-01-22T21:12:24.937Z,1.10
2023-01-22T21:14:55.346Z,1.17
2023-01-22T21:17:24.705Z,1.00
2023-01-22T21:19:55.270Z,1.13
2023-01-22T21:22:24.368Z,1.30
2023-01-22T21:24:54.977Z,1.03
2023-01-22T21:27:24.031Z,1.00
2023-01-22T21:29:53.120Z,1.27
2023-01-22T21:32:22.150Z,1.27
2023-01-22T21:34:51.240Z,1.00
2023-01-22T21:37:20.459Z,1.30
2023-01-22T21:39:49.703Z,1.20
2023-01-22T21:42:37.996Z,1.60
2023-01-22T21:45:25.660Z,1.50
2023-01-22T21:47:54.730Z,1.13
2023-01-22T21:50:23.762Z,1.10
2023-01-22T21:52:55.015Z,1.40
2023-01-22T21:55:24.195Z,0.97
2023-01-22T21:57:54.678Z,1.40
2023-01-22T22:00:23.832Z,0.83
2023-01-22T22:02:53.222Z,1.33
2023-01-22T22:05:22.341Z,1.30
2023-01-22T22:07:51.384Z,1.17
2023-01-22T22:10:20.966Z,1.03
2023-01-22T22:12:50.379Z,0.77
2023-01-22T22:15:21.219Z,1.00
2023-01-22T22:17:50.321Z,0.90
2023-01-22T22:20:19.910Z,1.23
2023-01-22T22:22:49.072Z,1.23
2023-01-22T22:25:18.204Z,1.00
2023-01-22T22:27:47.214Z,1.10
2023-01-22T22:30:16.831Z,0.70
2023-01-22T22:32:47.499Z,1.20
2023-01-22T22:35:16.621Z,0.80
2023-01-22T22:37:45.627Z,0.97
2023-01-22T22:40:15.066Z,0.80
2023-01-22T22:42:44.125Z,0.63
2023-01-22T22:45:13.179Z,1.10
2023-01-22T22:47:42.340Z,0.83
2023-01-22T22:50:13.289Z,0.93
2023-01-22T22:52:43.368Z,1.20
2023-01-22T22:55:12.467Z,0.83
2023-01-22T22:57:41.477Z,0.87
2023-01-22T23:00:13.177Z,0.93
2023-01-22T23:02:43.525Z,0.90
2023-01-22T23:05:13.868Z,0.90
2023-01-22T23:07:42.993Z,1.10
2023-01-22T23:10:28.605Z,0.80
2023-01-22T23:12:59.471Z,1.20
2023-01-22T23:15:30.802Z,0.83
2023-01-22T23:18:02.173Z,1.13
2023-01-22T23:20:32.607Z,1.00
2023-01-22T23:23:01.630Z,1.07
2023-01-22T23:25:30.726Z,1.03
2023-01-22T23:27:59.789Z,1.07
2023-01-22T23:30:28.880Z,1.30
2023-01-22T23:32:58.012Z,0.90
2023-01-22T23:35:27.023Z,1.07
2023-01-22T23:37:57.402Z,1.23
2023-01-22T23:40:26.445Z,0.97
2023-01-22T23:42:55.492Z,1.00
2023-01-22T23:45:24.526Z,0.97
2023-01-22T23:47:53.921Z,1.00
2023-01-22T23:50:23.298Z,1.03
2023-01-22T23:52:52.405Z,1.43
2023-01-22T23:55:22.811Z,1.07
2023-01-22T23:57:51.841Z,0.80
